岡山グライダークラブ活動状況掲示板あなたは無料カウンター人目の訪問者です

岡山グライダークラブ
岡山市浦安南町639-1 岡南飛行場
 使用機:シャイベ式 SF25C型 ファルケ   JA2330
      ヴァレンティン式17E型 タイフーン  JA2342
 練習日:毎日曜日  クラブルーム:電話 086-265-1810
この掲示板は岡山グライダークラブの活動状況をお知らせする掲示板です。
!!!この掲示板は投稿規制をしています。!!!
クラブ関連各種情報は 岡山グライダークラブクラブルーム      を       .
  ブリーフイング情報は  岡山グライダークラブブリーフィングルーム  をご覧下さい。 .
※写真はクリックすると拡大して見ることが出来ます。
岡南飛行場へのアクセス等は 岡南飛行場管理事務所 をご覧ください。
クラブの ホームページ ができました。

 
06月07日
by OGC at 2020/6/7(日) 20:46:02 No.20200607201001  削除コメント
1024 x 768 x 58,601バイト
No.1

06月07日
本日の参加者
  会員      19名
  その他      0名


@本日の様子




METAR
RJBK 070000Z 08005KT 050V130 25KM FEW025CU 24/13 Q1010 A2985
RJOB 070000Z 06004KT 350V130 9999 FEW025 23/12 Q1011
RJOT 070000Z 08006KT 040V120 9999 FEW025 23/17 Q1011
RJOA 070000Z 13004KT 070V190 9999 FEW015 SCT020 23/18 Q1011
TAF
RJOB 062308Z 0700/0806 03008KT 9999 FEW030
RJOT 062309Z 0700/0806 03006KT 9999 FEW030
RJOA 062306Z 0700/0806 16007KT 9999 FEW030
     BECMG 0710/0712 34005KT
     BECMG 0721/0800 14005KT


新型コロナの影響で、しばらくの間、活動を自粛していましたので、出席人数が19名となり、またしても記録を更新してしまいました。
天候は雲がほとんどなく、南風の横風でした。ということで、横風時の着陸談義に花が咲いていたようです。



解散    18:30

1番機  10:30離陸 撤収機  18:25着陸 

SF25C JA2330 ファルケ     13Flt.4h20min  
17E   JA2342 タイフーン    06Flt.2h35min  
合計                    19Flt.6h55min

    << 戻る || ホームページ || 最新の掲示板へ